Fishing Creek, Maryland
Current Conditions -  °F | °C
As of 11:52 AM on Saturday 25 Oct 2014 (Local Time) from KNHK Reporting Station
Few Clouds Few Clouds  
Wind Chill: 19°   Ceiling: Unl
Heat Index: 19°   Visibility: 10mi
Dew Point:   Wind: 7mph
Humidity: 42%   Direction: 300°WNW
Pressure: 29.94"   Gusts: NA
Location:  38.31°N, 76.23°W
Report Text: KNHK 251552Z 30006KT 10SM FEW250 19/06 A2994 RMK AO2 SLP137 T01890056 $
Loading
Personal Weather Stations






























Interactive Weather Map
Tropical Storm Tracking
New forecast layout! Learn more

10-Day Weather Forecast

Advertisements
Track Severe Weather on mobile